Elin Poseidon — SVAZ2 — position and weather

sailwx.info

Track history (hours):
 
Tides and Currents Weather Stations Pressure Air Temp Water Temp Dewpoint Dewpoint Depression Visibility Wind Speed Wind Dir Waves Ship Positions

Elin Poseidon

Last reported at 2018-Jan-19 17:53 UTC. Time now 2018-Jan-21 03:15 UTC.
Position N 38°43' E 024°11'.

Length 92 m; draft 4.9 m.

Type: Tanker. MMSI: 241006000.

Date/timePositionNaut miles runAvg speedWind from/ knotsBaromVisibWave heightAir tempDewpointWater temp
2018-Jan-19 17:53N 38°43' E 024°11'51 7.3
2018-Jan-19 10:58N 37°55' E 024°32'1512.2
2018-Jan-19 09:46N 37°45' E 024°19'512.1
2018-Jan-19 09:22N 37°42' E 024°14'412.2
2018-Jan-19 09:00N 37°39' E 024°10'611.6
2018-Jan-19 08:30N 37°37' E 024°03'612.9
2018-Jan-19 08:00N 37°37' E 023°55'1012.0
2018-Jan-19 07:08N 37°40' E 023°42'212.4
2018-Jan-19 07:01N 37°42' E 023°42'612.4
2018-Jan-19 06:30N 37°47' E 023°38'611.9
2018-Jan-19 06:00N 37°51' E 023°32'612.1
2018-Jan-19 05:31N 37°53' E 023°24'5 9.4
2018-Jan-19 05:00N 37°57' E 023°25'3 6.9
2018-Jan-19 04:30N 38°00' E 023°27'3 6.5
2018-Jan-19 04:01N 38°02' E 023°30'0 0.5
2018-Jan-19 03:30N 38°02' E 023°31'0 0.0
2018-Jan-19 01:45N 38°02' E 023°31'0 0.0
2018-Jan-19 01:27N 38°02' E 023°31'0 0.0
2018-Jan-19 00:57N 38°02' E 023°31'0 0.0
2018-Jan-19 00:27N 38°02' E 023°31'0 0.0
2018-Jan-18 16:14N 38°02' E 023°31'0 0.0
2018-Jan-18 15:59N 38°02' E 023°31'0 0.0
2018-Jan-18 15:23N 38°02' E 023°31'0 0.0
2018-Jan-18 11:26N 38°02' E 023°31'0 0.0
2018-Jan-18 10:20N 38°02' E 023°31'0 0.1
2018-Jan-18 09:29N 38°02' E 023°30'1 2.4
2018-Jan-18 08:58N 38°02' E 023°32'0 0.2
2018-Jan-18 08:28N 38°02' E 023°32'0 0.0
2018-Jan-18 07:58N 38°02' E 023°32'0 0.0
2018-Jan-18 07:25N 38°02' E 023°32'0 0.0
2018-Jan-18 06:58N 38°02' E 023°32'0 0.0
2018-Jan-18 06:28N 38°02' E 023°32'0 0.0
2018-Jan-18 05:52N 38°02' E 023°32'0 0.1
2018-Jan-18 05:28N 38°02' E 023°32'0 0.0
2018-Jan-18 04:58N 38°02' E 023°32'0 0.0
2018-Jan-18 04:28N 38°02' E 023°32'0 0.0
2018-Jan-18 03:58N 38°02' E 023°32'0 0.2
2018-Jan-18 03:26N 38°02' E 023°32'0 0.1
2018-Jan-18 02:59N 38°02' E 023°32'0 0.2
2018-Jan-18 02:29N 38°02' E 023°32'0 0.2
2018-Jan-18 02:01N 38°02' E 023°32'0 0.4
2018-Jan-18 01:30N 38°02' E 023°32'0 0.0
2018-Jan-18 00:56N 38°02' E 023°32'0 0.0
2018-Jan-17 23:59N 38°02' E 023°32'0 0.1
2018-Jan-17 23:53N 38°02' E 023°32'  
2018-Jan-10 20:39N 37°54' E 024°32'311.0
2018-Jan-10 20:25N 37°53' E 024°29'1111.2
2018-Jan-10 19:25N 37°45' E 024°18'511.3
2018-Jan-10 18:57N 37°42' E 024°14'611.4
2018-Jan-10 18:28N 37°38' E 024°08'511.1
2018-Jan-10 18:00N 37°37' E 024°02'611.8
2018-Jan-10 17:30N 37°38' E 023°54'711.7
2018-Jan-10 16:55N 37°39' E 023°46'410.8
2018-Jan-10 16:30N 37°42' E 023°41'611.8
2018-Jan-10 16:00N 37°47' E 023°38'611.3
2018-Jan-10 15:30N 37°53' E 023°36'4 8.5
2018-Jan-10 15:00N 37°57' E 023°36'3 6.0
2018-Jan-10 14:30N 37°59' E 023°33'4 7.1
2018-Jan-10 14:00N 38°02' E 023°30'0 0.0
2018-Jan-09 23:47N 38°02' E 023°31'0 0.0
2018-Jan-09 21:59N 38°02' E 023°31'0 0.0
2018-Jan-09 20:17N 38°02' E 023°31'0 0.0
2018-Jan-09 19:48N 38°02' E 023°31'0 1.5
2018-Jan-09 19:31N 38°02' E 023°30'2 3.0
2018-Jan-09 19:01N 38°02' E 023°32'0 0.0
2018-Jan-09 18:31N 38°02' E 023°32'0 0.1
2018-Jan-09 18:01N 38°02' E 023°32'  
Track history (hours):
 
Tides and Currents Weather Stations Pressure Air Temp Water Temp Dewpoint Dewpoint Depression Visibility Wind Speed Wind Dir Waves Ship Positions

Elin Poseidon

Last reported at 2018-Jan-19 17:53 UTC. Time now 2018-Jan-21 03:15 UTC.
Position N 38°43' E 024°11'.

Length 92 m; draft 4.9 m.

Type: Tanker. MMSI: 241006000.

Date/timePositionNaut miles runAvg speedWind from/ knotsBaromVisibWave heightAir tempDewpointWater temp
2018-Jan-19 17:53N 38°43' E 024°11'51 7.3
2018-Jan-19 10:58N 37°55' E 024°32'1512.2
2018-Jan-19 09:46N 37°45' E 024°19'512.1
2018-Jan-19 09:22N 37°42' E 024°14'412.2
2018-Jan-19 09:00N 37°39' E 024°10'611.6
2018-Jan-19 08:30N 37°37' E 024°03'612.9
2018-Jan-19 08:00N 37°37' E 023°55'1012.0
2018-Jan-19 07:08N 37°40' E 023°42'212.4
2018-Jan-19 07:01N 37°42' E 023°42'612.4
2018-Jan-19 06:30N 37°47' E 023°38'611.9
2018-Jan-19 06:00N 37°51' E 023°32'612.1
2018-Jan-19 05:31N 37°53' E 023°24'5 9.4
2018-Jan-19 05:00N 37°57' E 023°25'3 6.9
2018-Jan-19 04:30N 38°00' E 023°27'3 6.5
2018-Jan-19 04:01N 38°02' E 023°30'0 0.5
2018-Jan-19 03:30N 38°02' E 023°31'0 0.0
2018-Jan-19 01:45N 38°02' E 023°31'0 0.0
2018-Jan-19 01:27N 38°02' E 023°31'0 0.0
2018-Jan-19 00:57N 38°02' E 023°31'0 0.0
2018-Jan-19 00:27N 38°02' E 023°31'0 0.0
2018-Jan-18 16:14N 38°02' E 023°31'0 0.0
2018-Jan-18 15:59N 38°02' E 023°31'0 0.0
2018-Jan-18 15:23N 38°02' E 023°31'0 0.0
2018-Jan-18 11:26N 38°02' E 023°31'0 0.0
2018-Jan-18 10:20N 38°02' E 023°31'0 0.1
2018-Jan-18 09:29N 38°02' E 023°30'1 2.4
2018-Jan-18 08:58N 38°02' E 023°32'0 0.2
2018-Jan-18 08:28N 38°02' E 023°32'0 0.0
2018-Jan-18 07:58N 38°02' E 023°32'0 0.0
2018-Jan-18 07:25N 38°02' E 023°32'0 0.0
2018-Jan-18 06:58N 38°02' E 023°32'0 0.0
2018-Jan-18 06:28N 38°02' E 023°32'0 0.0
2018-Jan-18 05:52N 38°02' E 023°32'0 0.1
2018-Jan-18 05:28N 38°02' E 023°32'0 0.0
2018-Jan-18 04:58N 38°02' E 023°32'0 0.0
2018-Jan-18 04:28N 38°02' E 023°32'0 0.0
2018-Jan-18 03:58N 38°02' E 023°32'0 0.2
2018-Jan-18 03:26N 38°02' E 023°32'0 0.1
2018-Jan-18 02:59N 38°02' E 023°32'0 0.2
2018-Jan-18 02:29N 38°02' E 023°32'0 0.2
2018-Jan-18 02:01N 38°02' E 023°32'0 0.4
2018-Jan-18 01:30N 38°02' E 023°32'0 0.0
2018-Jan-18 00:56N 38°02' E 023°32'0 0.0
2018-Jan-17 23:59N 38°02' E 023°32'0 0.1
2018-Jan-17 23:53N 38°02' E 023°32'  
2018-Jan-10 20:39N 37°54' E 024°32'311.0
2018-Jan-10 20:25N 37°53' E 024°29'1111.2
2018-Jan-10 19:25N 37°45' E 024°18'511.3
2018-Jan-10 18:57N 37°42' E 024°14'611.4
2018-Jan-10 18:28N 37°38' E 024°08'511.1
2018-Jan-10 18:00N 37°37' E 024°02'611.8
2018-Jan-10 17:30N 37°38' E 023°54'711.7
2018-Jan-10 16:55N 37°39' E 023°46'410.8
2018-Jan-10 16:30N 37°42' E 023°41'611.8
2018-Jan-10 16:00N 37°47' E 023°38'611.3
2018-Jan-10 15:30N 37°53' E 023°36'4 8.5
2018-Jan-10 15:00N 37°57' E 023°36'3 6.0
2018-Jan-10 14:30N 37°59' E 023°33'4 7.1
2018-Jan-10 14:00N 38°02' E 023°30'0 0.0
2018-Jan-09 23:47N 38°02' E 023°31'0 0.0
2018-Jan-09 21:59N 38°02' E 023°31'0 0.0
2018-Jan-09 20:17N 38°02' E 023°31'0 0.0
2018-Jan-09 19:48N 38°02' E 023°31'0 1.5
2018-Jan-09 19:31N 38°02' E 023°30'2 3.0
2018-Jan-09 19:01N 38°02' E 023°32'0 0.0
2018-Jan-09 18:31N 38°02' E 023°32'0 0.1
2018-Jan-09 18:01N 38°02' E 023°32'  

Dump ship's entire track history